sensor_id;sensor_type;location;lat;lon;timestamp;P1;durP1;ratioP1;P2;durP2;ratioP2
66751;SDS011;53663;42.676;23.238;2023-09-30T00:02:06;10.73;;;4.70;;
66751;SDS011;53663;42.676;23.238;2023-09-30T00:04:32;10.30;;;4.75;;
66751;SDS011;53663;42.676;23.238;2023-09-30T00:06:57;13.55;;;4.93;;
66751;SDS011;53663;42.676;23.238;2023-09-30T00:09:23;10.60;;;4.45;;
66751;SDS011;53663;42.676;23.238;2023-09-30T00:11:48;19.33;;;4.85;;
66751;SDS011;53663;42.676;23.238;2023-09-30T00:14:14;17.35;;;5.18;;
66751;SDS011;53663;42.676;23.238;2023-09-30T00:16:39;10.00;;;4.85;;
66751;SDS011;53663;42.676;23.238;2023-09-30T00:19:05;17.50;;;4.75;;
66751;SDS011;53663;42.676;23.238;2023-09-30T00:21:31;10.35;;;4.57;;
66751;SDS011;53663;42.676;23.238;2023-09-30T00:23:56;11.40;;;4.40;;
66751;SDS011;53663;42.676;23.238;2023-09-30T00:26:22;11.13;;;4.95;;
66751;SDS011;53663;42.676;23.238;2023-09-30T00:28:48;11.25;;;4.82;;
66751;SDS011;53663;42.676;23.238;2023-09-30T00:31:13;12.40;;;5.00;;
66751;SDS011;53663;42.676;23.238;2023-09-30T00:33:39;15.82;;;4.78;;
66751;SDS011;53663;42.676;23.238;2023-09-30T00:36:08;16.58;;;5.00;;
66751;SDS011;53663;42.676;23.238;2023-09-30T00:38:34;11.93;;;4.75;;
66751;SDS011;53663;42.676;23.238;2023-09-30T00:41:00;14.60;;;5.43;;
66751;SDS011;53663;42.676;23.238;2023-09-30T00:43:26;23.20;;;5.25;;
66751;SDS011;53663;42.676;23.238;2023-09-30T00:46:01;13.15;;;5.20;;
66751;SDS011;53663;42.676;23.238;2023-09-30T00:48:47;12.15;;;5.30;;
66751;SDS011;53663;42.676;23.238;2023-09-30T00:51:13;9.25;;;4.53;;
66751;SDS011;53663;42.676;23.238;2023-09-30T00:53:39;13.52;;;5.18;;
66751;SDS011;53663;42.676;23.238;2023-09-30T00:56:05;12.02;;;4.72;;
66751;SDS011;53663;42.676;23.238;2023-09-30T00:58:31;12.98;;;4.85;;
66751;SDS011;53663;42.676;23.238;2023-09-30T01:00:59;11.13;;;4.38;;
66751;SDS011;53663;42.676;23.238;2023-09-30T01:03:25;12.65;;;5.05;;
66751;SDS011;53663;42.676;23.238;2023-09-30T01:05:50;9.07;;;4.57;;
66751;SDS011;53663;42.676;23.238;2023-09-30T01:08:16;12.18;;;4.57;;
66751;SDS011;53663;42.676;23.238;2023-09-30T01:10:43;7.72;;;4.50;;
66751;SDS011;53663;42.676;23.238;2023-09-30T01:13:09;13.85;;;4.50;;
66751;SDS011;53663;42.676;23.238;2023-09-30T01:15:35;12.43;;;4.22;;
66751;SDS011;53663;42.676;23.238;2023-09-30T01:18:02;13.90;;;4.43;;
66751;SDS011;53663;42.676;23.238;2023-09-30T01:20:28;12.15;;;4.65;;
66751;SDS011;53663;42.676;23.238;2023-09-30T01:22:53;19.55;;;4.45;;
66751;SDS011;53663;42.676;23.238;2023-09-30T01:25:21;12.38;;;4.25;;
66751;SDS011;53663;42.676;23.238;2023-09-30T01:27:47;18.60;;;4.65;;
66751;SDS011;53663;42.676;23.238;2023-09-30T01:30:12;24.42;;;4.70;;
66751;SDS011;53663;42.676;23.238;2023-09-30T01:32:39;12.90;;;4.95;;
66751;SDS011;53663;42.676;23.238;2023-09-30T01:35:05;11.70;;;4.03;;
66751;SDS011;53663;42.676;23.238;2023-09-30T01:37:31;9.15;;;4.30;;
66751;SDS011;53663;42.676;23.238;2023-09-30T01:39:56;17.85;;;3.75;;
66751;SDS011;53663;42.676;23.238;2023-09-30T01:42:22;18.63;;;4.43;;
66751;SDS011;53663;42.676;23.238;2023-09-30T01:44:47;15.63;;;4.63;;
66751;SDS011;53663;42.676;23.238;2023-09-30T01:47:13;14.55;;;5.15;;
66751;SDS011;53663;42.676;23.238;2023-09-30T01:49:38;7.95;;;4.38;;
66751;SDS011;53663;42.676;23.238;2023-09-30T01:52:04;13.63;;;4.55;;
66751;SDS011;53663;42.676;23.238;2023-09-30T01:54:29;14.57;;;4.45;;
66751;SDS011;53663;42.676;23.238;2023-09-30T01:56:55;21.48;;;4.30;;
66751;SDS011;53663;42.676;23.238;2023-09-30T01:59:20;14.77;;;4.10;;
66751;SDS011;53663;42.676;23.238;2023-09-30T02:01:46;7.43;;;4.18;;
66751;SDS011;53663;42.676;23.238;2023-09-30T02:04:12;14.95;;;4.40;;
66751;SDS011;53663;42.676;23.238;2023-09-30T02:06:40;10.85;;;4.63;;
66751;SDS011;53663;42.676;23.238;2023-09-30T02:09:06;12.15;;;4.20;;
66751;SDS011;53663;42.676;23.238;2023-09-30T02:11:34;11.20;;;4.50;;
66751;SDS011;53663;42.676;23.238;2023-09-30T02:14:01;14.20;;;4.45;;
66751;SDS011;53663;42.676;23.238;2023-09-30T02:16:27;11.20;;;4.30;;
66751;SDS011;53663;42.676;23.238;2023-09-30T02:18:53;15.80;;;3.72;;
66751;SDS011;53663;42.676;23.238;2023-09-30T02:21:19;9.50;;;3.85;;
66751;SDS011;53663;42.676;23.238;2023-09-30T02:23:44;15.68;;;4.47;;
66751;SDS011;53663;42.676;23.238;2023-09-30T02:26:16;13.77;;;4.28;;
66751;SDS011;53663;42.676;23.238;2023-09-30T02:28:42;7.90;;;4.53;;
66751;SDS011;53663;42.676;23.238;2023-09-30T02:31:08;11.98;;;4.40;;
66751;SDS011;53663;42.676;23.238;2023-09-30T02:33:34;9.13;;;4.40;;
66751;SDS011;53663;42.676;23.238;2023-09-30T02:36:06;10.18;;;3.88;;
66751;SDS011;53663;42.676;23.238;2023-09-30T02:38:32;12.38;;;3.70;;
66751;SDS011;53663;42.676;23.238;2023-09-30T02:41:00;20.08;;;3.83;;
66751;SDS011;53663;42.676;23.238;2023-09-30T02:43:27;14.73;;;3.85;;
66751;SDS011;53663;42.676;23.238;2023-09-30T02:45:56;12.68;;;3.90;;
66751;SDS011;53663;42.676;23.238;2023-09-30T02:48:22;18.60;;;4.22;;
66751;SDS011;53663;42.676;23.238;2023-09-30T02:50:47;9.57;;;4.05;;
66751;SDS011;53663;42.676;23.238;2023-09-30T02:53:13;11.63;;;4.45;;
66751;SDS011;53663;42.676;23.238;2023-09-30T02:55:39;12.88;;;4.00;;
66751;SDS011;53663;42.676;23.238;2023-09-30T02:58:06;13.93;;;4.53;;
66751;SDS011;53663;42.676;23.238;2023-09-30T03:00:33;8.90;;;4.63;;
66751;SDS011;53663;42.676;23.238;2023-09-30T03:03:01;14.27;;;4.15;;
66751;SDS011;53663;42.676;23.238;2023-09-30T03:05:27;18.33;;;4.22;;
66751;SDS011;53663;42.676;23.238;2023-09-30T03:07:55;12.00;;;3.88;;
66751;SDS011;53663;42.676;23.238;2023-09-30T03:10:21;8.48;;;3.88;;
66751;SDS011;53663;42.676;23.238;2023-09-30T03:12:55;17.15;;;4.18;;
66751;SDS011;53663;42.676;23.238;2023-09-30T03:15:21;10.43;;;4.07;;
66751;SDS011;53663;42.676;23.238;2023-09-30T03:17:47;15.30;;;4.40;;
66751;SDS011;53663;42.676;23.238;2023-09-30T03:20:14;10.77;;;4.15;;
66751;SDS011;53663;42.676;23.238;2023-09-30T03:22:43;10.18;;;3.75;;
66751;SDS011;53663;42.676;23.238;2023-09-30T03:25:12;15.02;;;4.97;;
66751;SDS011;53663;42.676;23.238;2023-09-30T03:27:41;10.60;;;4.72;;
66751;SDS011;53663;42.676;23.238;2023-09-30T03:30:07;14.73;;;4.93;;
66751;SDS011;53663;42.676;23.238;2023-09-30T03:32:34;13.68;;;4.55;;
66751;SDS011;53663;42.676;23.238;2023-09-30T03:35:06;12.57;;;4.05;;
66751;SDS011;53663;42.676;23.238;2023-09-30T03:37:33;23.48;;;4.20;;
66751;SDS011;53663;42.676;23.238;2023-09-30T03:39:59;10.93;;;4.05;;
66751;SDS011;53663;42.676;23.238;2023-09-30T03:42:26;17.35;;;4.53;;
66751;SDS011;53663;42.676;23.238;2023-09-30T03:44:53;9.60;;;4.20;;
66751;SDS011;53663;42.676;23.238;2023-09-30T03:47:19;12.30;;;3.75;;
66751;SDS011;53663;42.676;23.238;2023-09-30T03:49:45;16.45;;;4.47;;
66751;SDS011;53663;42.676;23.238;2023-09-30T03:52:11;17.38;;;4.53;;
66751;SDS011;53663;42.676;23.238;2023-09-30T03:54:37;11.98;;;3.88;;
66751;SDS011;53663;42.676;23.238;2023-09-30T03:57:02;13.07;;;4.70;;
66751;SDS011;53663;42.676;23.238;2023-09-30T03:59:29;22.55;;;4.88;;
66751;SDS011;53663;42.676;23.238;2023-09-30T04:01:55;28.17;;;5.10;;
66751;SDS011;53663;42.676;23.238;2023-09-30T04:04:23;15.07;;;4.15;;
66751;SDS011;53663;42.676;23.238;2023-09-30T04:06:49;15.27;;;5.15;;
66751;SDS011;53663;42.676;23.238;2023-09-30T04:09:16;20.63;;;4.68;;
66751;SDS011;53663;42.676;23.238;2023-09-30T04:11:43;13.48;;;4.40;;
66751;SDS011;53663;42.676;23.238;2023-09-30T04:14:08;16.60;;;4.13;;
66751;SDS011;53663;42.676;23.238;2023-09-30T04:16:34;16.00;;;4.85;;
66751;SDS011;53663;42.676;23.238;2023-09-30T04:19:00;10.13;;;4.47;;
66751;SDS011;53663;42.676;23.238;2023-09-30T04:21:26;12.48;;;4.40;;
66751;SDS011;53663;42.676;23.238;2023-09-30T04:23:55;12.88;;;4.35;;
66751;SDS011;53663;42.676;23.238;2023-09-30T04:26:21;8.45;;;4.45;;
66751;SDS011;53663;42.676;23.238;2023-09-30T04:28:47;8.48;;;4.45;;
66751;SDS011;53663;42.676;23.238;2023-09-30T04:31:12;10.55;;;4.57;;
66751;SDS011;53663;42.676;23.238;2023-09-30T04:33:38;12.43;;;4.25;;
66751;SDS011;53663;42.676;23.238;2023-09-30T04:36:05;16.85;;;5.00;;
66751;SDS011;53663;42.676;23.238;2023-09-30T04:38:34;10.38;;;4.40;;
66751;SDS011;53663;42.676;23.238;2023-09-30T04:41:02;20.50;;;4.38;;
66751;SDS011;53663;42.676;23.238;2023-09-30T04:43:28;21.80;;;4.70;;
66751;SDS011;53663;42.676;23.238;2023-09-30T04:45:54;13.75;;;5.85;;
66751;SDS011;53663;42.676;23.238;2023-09-30T04:48:22;8.85;;;4.18;;
66751;SDS011;53663;42.676;23.238;2023-09-30T04:50:48;13.05;;;4.85;;
66751;SDS011;53663;42.676;23.238;2023-09-30T04:53:14;18.77;;;5.10;;
66751;SDS011;53663;42.676;23.238;2023-09-30T04:55:42;11.65;;;4.90;;
66751;SDS011;53663;42.676;23.238;2023-09-30T04:58:08;16.13;;;4.93;;
66751;SDS011;53663;42.676;23.238;2023-09-30T05:00:34;17.58;;;5.63;;
66751;SDS011;53663;42.676;23.238;2023-09-30T05:03:00;13.20;;;4.57;;
66751;SDS011;53663;42.676;23.238;2023-09-30T05:05:26;12.90;;;5.25;;
66751;SDS011;53663;42.676;23.238;2023-09-30T05:07:52;15.13;;;5.07;;
66751;SDS011;53663;42.676;23.238;2023-09-30T05:10:17;11.35;;;5.22;;
66751;SDS011;53663;42.676;23.238;2023-09-30T05:12:44;18.63;;;5.72;;
66751;SDS011;53663;42.676;23.238;2023-09-30T05:15:14;11.43;;;5.15;;
66751;SDS011;53663;42.676;23.238;2023-09-30T05:17:41;16.45;;;5.50;;
66751;SDS011;53663;42.676;23.238;2023-09-30T05:20:09;14.98;;;5.88;;
66751;SDS011;53663;42.676;23.238;2023-09-30T05:22:38;14.10;;;5.43;;
66751;SDS011;53663;42.676;23.238;2023-09-30T05:25:06;12.15;;;4.75;;
66751;SDS011;53663;42.676;23.238;2023-09-30T05:27:32;15.50;;;4.45;;
66751;SDS011;53663;42.676;23.238;2023-09-30T05:29:58;16.70;;;5.03;;
66751;SDS011;53663;42.676;23.238;2023-09-30T05:32:24;12.23;;;4.78;;
66751;SDS011;53663;42.676;23.238;2023-09-30T05:34:52;17.40;;;4.85;;
66751;SDS011;53663;42.676;23.238;2023-09-30T05:37:19;14.98;;;4.75;;
66751;SDS011;53663;42.676;23.238;2023-09-30T05:39:47;19.08;;;4.47;;
66751;SDS011;53663;42.676;23.238;2023-09-30T05:42:14;10.38;;;4.20;;
66751;SDS011;53663;42.676;23.238;2023-09-30T05:44:40;16.25;;;4.60;;
66751;SDS011;53663;42.676;23.238;2023-09-30T05:47:08;19.85;;;5.32;;
66751;SDS011;53663;42.676;23.238;2023-09-30T05:49:33;23.85;;;5.85;;
66751;SDS011;53663;42.676;23.238;2023-09-30T05:51:59;19.17;;;6.15;;
66751;SDS011;53663;42.676;23.238;2023-09-30T05:54:24;27.02;;;5.88;;
66751;SDS011;53663;42.676;23.238;2023-09-30T05:56:50;14.75;;;5.72;;
66751;SDS011;53663;42.676;23.238;2023-09-30T05:59:15;13.32;;;5.18;;
66751;SDS011;53663;42.676;23.238;2023-09-30T06:01:41;16.65;;;5.70;;
66751;SDS011;53663;42.676;23.238;2023-09-30T06:04:07;18.35;;;6.13;;
66751;SDS011;53663;42.676;23.238;2023-09-30T06:06:33;18.17;;;6.18;;
66751;SDS011;53663;42.676;23.238;2023-09-30T06:08:58;13.02;;;5.80;;
66751;SDS011;53663;42.676;23.238;2023-09-30T06:11:24;24.83;;;6.50;;
66751;SDS011;53663;42.676;23.238;2023-09-30T06:13:56;15.45;;;5.80;;
66751;SDS011;53663;42.676;23.238;2023-09-30T06:16:29;14.60;;;6.20;;
66751;SDS011;53663;42.676;23.238;2023-09-30T06:18:56;14.85;;;6.53;;
66751;SDS011;53663;42.676;23.238;2023-09-30T06:21:23;23.77;;;6.40;;
66751;SDS011;53663;42.676;23.238;2023-09-30T06:23:54;20.65;;;6.82;;
66751;SDS011;53663;42.676;23.238;2023-09-30T06:26:20;15.15;;;6.57;;
66751;SDS011;53663;42.676;23.238;2023-09-30T06:28:50;19.20;;;6.65;;
66751;SDS011;53663;42.676;23.238;2023-09-30T06:31:18;15.43;;;6.60;;
66751;SDS011;53663;42.676;23.238;2023-09-30T06:33:44;21.33;;;6.95;;
66751;SDS011;53663;42.676;23.238;2023-09-30T06:36:13;21.67;;;6.50;;
66751;SDS011;53663;42.676;23.238;2023-09-30T06:38:39;18.85;;;6.35;;
66751;SDS011;53663;42.676;23.238;2023-09-30T06:41:07;18.33;;;6.80;;
66751;SDS011;53663;42.676;23.238;2023-09-30T06:43:33;20.77;;;6.47;;
66751;SDS011;53663;42.676;23.238;2023-09-30T06:46:05;20.85;;;5.85;;
66751;SDS011;53663;42.676;23.238;2023-09-30T06:48:32;23.35;;;4.75;;
66751;SDS011;53663;42.676;23.238;2023-09-30T06:50:58;16.35;;;4.60;;
66751;SDS011;53663;42.676;23.238;2023-09-30T06:53:24;22.30;;;4.78;;
66751;SDS011;53663;42.676;23.238;2023-09-30T06:55:49;21.80;;;4.65;;
66751;SDS011;53663;42.676;23.238;2023-09-30T06:58:16;24.67;;;4.82;;
66751;SDS011;53663;42.676;23.238;2023-09-30T07:00:46;19.35;;;4.93;;
66751;SDS011;53663;42.676;23.238;2023-09-30T07:05:41;13.75;;;4.70;;
66751;SDS011;53663;42.676;23.238;2023-09-30T07:08:07;17.52;;;4.65;;
66751;SDS011;53663;42.676;23.238;2023-09-30T07:10:33;28.90;;;8.07;;
66751;SDS011;53663;42.676;23.238;2023-09-30T07:13:01;10.93;;;5.78;;
66751;SDS011;53663;42.676;23.238;2023-09-30T07:15:27;19.13;;;7.75;;
66751;SDS011;53663;42.676;23.238;2023-09-30T07:17:53;41.15;;;22.50;;
66751;SDS011;53663;42.676;23.238;2023-09-30T07:20:18;44.53;;;24.52;;
66751;SDS011;53663;42.676;23.238;2023-09-30T07:22:45;27.20;;;12.18;;
66751;SDS011;53663;42.676;23.238;2023-09-30T07:25:11;75.57;;;35.58;;
66751;SDS011;53663;42.676;23.238;2023-09-30T07:27:39;46.53;;;22.02;;
66751;SDS011;53663;42.676;23.238;2023-09-30T07:30:05;36.55;;;17.58;;
66751;SDS011;53663;42.676;23.238;2023-09-30T07:32:31;36.15;;;17.63;;
66751;SDS011;53663;42.676;23.238;2023-09-30T07:34:57;29.15;;;11.77;;
66751;SDS011;53663;42.676;23.238;2023-09-30T07:37:22;16.95;;;8.05;;
66751;SDS011;53663;42.676;23.238;2023-09-30T07:39:49;14.95;;;5.20;;
66751;SDS011;53663;42.676;23.238;2023-09-30T07:42:15;18.15;;;4.72;;
66751;SDS011;53663;42.676;23.238;2023-09-30T07:44:42;19.27;;;5.38;;
66751;SDS011;53663;42.676;23.238;2023-09-30T07:47:07;15.82;;;5.43;;
66751;SDS011;53663;42.676;23.238;2023-09-30T07:49:34;13.27;;;5.40;;
66751;SDS011;53663;42.676;23.238;2023-09-30T07:52:00;23.90;;;9.48;;
66751;SDS011;53663;42.676;23.238;2023-09-30T07:54:25;37.33;;;14.98;;
66751;SDS011;53663;42.676;23.238;2023-09-30T07:56:51;17.63;;;6.25;;
66751;SDS011;53663;42.676;23.238;2023-09-30T07:59:17;18.42;;;4.57;;
66751;SDS011;53663;42.676;23.238;2023-09-30T08:01:43;16.25;;;4.80;;
66751;SDS011;53663;42.676;23.238;2023-09-30T08:04:08;15.25;;;4.53;;
66751;SDS011;53663;42.676;23.238;2023-09-30T08:06:34;21.35;;;4.53;;
66751;SDS011;53663;42.676;23.238;2023-09-30T08:08:59;18.90;;;5.00;;
66751;SDS011;53663;42.676;23.238;2023-09-30T08:11:25;14.10;;;5.68;;
66751;SDS011;53663;42.676;23.238;2023-09-30T08:13:55;15.98;;;4.97;;
66751;SDS011;53663;42.676;23.238;2023-09-30T08:16:21;14.70;;;4.45;;
66751;SDS011;53663;42.676;23.238;2023-09-30T08:18:46;24.67;;;7.07;;
66751;SDS011;53663;42.676;23.238;2023-09-30T08:21:12;30.95;;;9.30;;
66751;SDS011;53663;42.676;23.238;2023-09-30T08:23:37;21.52;;;7.68;;
66751;SDS011;53663;42.676;23.238;2023-09-30T08:26:04;17.73;;;5.95;;
66751;SDS011;53663;42.676;23.238;2023-09-30T08:28:31;15.57;;;6.32;;
66751;SDS011;53663;42.676;23.238;2023-09-30T08:31:01;21.63;;;5.40;;
66751;SDS011;53663;42.676;23.238;2023-09-30T08:33:28;16.42;;;6.10;;
66751;SDS011;53663;42.676;23.238;2023-09-30T08:35:56;12.88;;;5.45;;
66751;SDS011;53663;42.676;23.238;2023-09-30T08:38:23;22.00;;;8.73;;
66751;SDS011;53663;42.676;23.238;2023-09-30T08:40:51;13.75;;;5.65;;
66751;SDS011;53663;42.676;23.238;2023-09-30T08:43:17;22.15;;;7.88;;
66751;SDS011;53663;42.676;23.238;2023-09-30T08:45:48;18.38;;;6.13;;
66751;SDS011;53663;42.676;23.238;2023-09-30T08:48:19;14.02;;;6.80;;
66751;SDS011;53663;42.676;23.238;2023-09-30T08:50:45;15.52;;;6.25;;
66751;SDS011;53663;42.676;23.238;2023-09-30T08:53:14;18.63;;;6.37;;
66751;SDS011;53663;42.676;23.238;2023-09-30T08:55:42;20.60;;;6.75;;
66751;SDS011;53663;42.676;23.238;2023-09-30T08:58:10;13.52;;;6.70;;
66751;SDS011;53663;42.676;23.238;2023-09-30T09:00:37;16.38;;;6.22;;
66751;SDS011;53663;42.676;23.238;2023-09-30T09:03:04;15.65;;;6.07;;
66751;SDS011;53663;42.676;23.238;2023-09-30T09:05:31;20.50;;;6.55;;
66751;SDS011;53663;42.676;23.238;2023-09-30T09:07:57;23.23;;;7.20;;
66751;SDS011;53663;42.676;23.238;2023-09-30T09:10:22;13.93;;;6.13;;
66751;SDS011;53663;42.676;23.238;2023-09-30T09:12:54;20.15;;;6.28;;
66751;SDS011;53663;42.676;23.238;2023-09-30T09:15:25;19.17;;;7.03;;
66751;SDS011;53663;42.676;23.238;2023-09-30T09:17:52;22.50;;;6.70;;
66751;SDS011;53663;42.676;23.238;2023-09-30T09:20:18;23.98;;;6.00;;
66751;SDS011;53663;42.676;23.238;2023-09-30T09:22:46;15.07;;;6.38;;
66751;SDS011;53663;42.676;23.238;2023-09-30T09:25:13;13.48;;;6.65;;
66751;SDS011;53663;42.676;23.238;2023-09-30T09:27:38;19.88;;;6.95;;
66751;SDS011;53663;42.676;23.238;2023-09-30T09:30:46;15.68;;;6.70;;
66751;SDS011;53663;42.676;23.238;2023-09-30T09:32:54;18.70;;;6.15;;
66751;SDS011;53663;42.676;23.238;2023-09-30T09:35:21;19.63;;;5.75;;
66751;SDS011;53663;42.676;23.238;2023-09-30T09:38:05;15.63;;;5.25;;
66751;SDS011;53663;42.676;23.238;2023-09-30T09:40:33;18.35;;;5.72;;
66751;SDS011;53663;42.676;23.238;2023-09-30T09:43:00;15.20;;;5.20;;
66751;SDS011;53663;42.676;23.238;2023-09-30T09:47:57;9.50;;;4.95;;
66751;SDS011;53663;42.676;23.238;2023-09-30T09:50:23;11.98;;;5.18;;
66751;SDS011;53663;42.676;23.238;2023-09-30T09:52:49;11.35;;;4.78;;
66751;SDS011;53663;42.676;23.238;2023-09-30T09:55:17;14.57;;;4.32;;
66751;SDS011;53663;42.676;23.238;2023-09-30T09:57:44;13.85;;;4.75;;
66751;SDS011;53663;42.676;23.238;2023-09-30T10:00:28;21.33;;;4.97;;
66751;SDS011;53663;42.676;23.238;2023-09-30T10:02:56;15.73;;;5.10;;
66751;SDS011;53663;42.676;23.238;2023-09-30T10:05:22;15.80;;;4.43;;
66751;SDS011;53663;42.676;23.238;2023-09-30T10:10:17;16.40;;;4.90;;
66751;SDS011;53663;42.676;23.238;2023-09-30T10:12:44;15.80;;;4.90;;
66751;SDS011;53663;42.676;23.238;2023-09-30T10:18:01;13.80;;;5.45;;
66751;SDS011;53663;42.676;23.238;2023-09-30T10:20:29;18.05;;;4.78;;
66751;SDS011;53663;42.676;23.238;2023-09-30T10:25:44;18.70;;;6.15;;
66751;SDS011;53663;42.676;23.238;2023-09-30T10:31:15;16.98;;;4.03;;
66751;SDS011;53663;42.676;23.238;2023-09-30T10:34:17;28.83;;;4.32;;
66751;SDS011;53663;42.676;23.238;2023-09-30T10:36:47;11.95;;;4.72;;
66751;SDS011;53663;42.676;23.238;2023-09-30T10:39:16;13.30;;;4.03;;
66751;SDS011;53663;42.676;23.238;2023-09-30T10:43:05;13.60;;;4.57;;
66751;SDS011;53663;42.676;23.238;2023-09-30T10:45:41;29.33;;;15.70;;
66751;SDS011;53663;42.676;23.238;2023-09-30T10:51:21;13.82;;;3.90;;
66751;SDS011;53663;42.676;23.238;2023-09-30T10:53:53;14.15;;;4.40;;
66751;SDS011;53663;42.676;23.238;2023-09-30T10:56:28;9.20;;;3.38;;
66751;SDS011;53663;42.676;23.238;2023-09-30T10:58:58;17.98;;;4.03;;
66751;SDS011;53663;42.676;23.238;2023-09-30T11:01:25;22.17;;;5.78;;
66751;SDS011;53663;42.676;23.238;2023-09-30T11:03:59;12.07;;;4.57;;
66751;SDS011;53663;42.676;23.238;2023-09-30T11:06:28;12.13;;;3.53;;
66751;SDS011;53663;42.676;23.238;2023-09-30T11:08:55;7.65;;;3.90;;
66751;SDS011;53663;42.676;23.238;2023-09-30T11:14:03;16.65;;;6.70;;
66751;SDS011;53663;42.676;23.238;2023-09-30T11:16:40;14.40;;;5.85;;
66751;SDS011;53663;42.676;23.238;2023-09-30T11:19:09;14.27;;;3.95;;
66751;SDS011;53663;42.676;23.238;2023-09-30T11:21:35;7.40;;;3.90;;
66751;SDS011;53663;42.676;23.238;2023-09-30T11:24:01;11.23;;;3.60;;
66751;SDS011;53663;42.676;23.238;2023-09-30T11:26:30;8.57;;;3.78;;
66751;SDS011;53663;42.676;23.238;2023-09-30T11:29:05;17.85;;;8.07;;
66751;SDS011;53663;42.676;23.238;2023-09-30T11:31:32;18.70;;;5.90;;
66751;SDS011;53663;42.676;23.238;2023-09-30T11:33:59;14.85;;;5.90;;
66751;SDS011;53663;42.676;23.238;2023-09-30T11:36:29;7.85;;;3.65;;
66751;SDS011;53663;42.676;23.238;2023-09-30T11:38:56;19.45;;;5.93;;
66751;SDS011;53663;42.676;23.238;2023-09-30T11:41:22;13.43;;;4.00;;
66751;SDS011;53663;42.676;23.238;2023-09-30T11:46:27;19.23;;;11.98;;
66751;SDS011;53663;42.676;23.238;2023-09-30T11:49:02;16.77;;;6.63;;
66751;SDS011;53663;42.676;23.238;2023-09-30T11:51:31;13.35;;;3.50;;
66751;SDS011;53663;42.676;23.238;2023-09-30T11:54:08;17.95;;;4.93;;
66751;SDS011;53663;42.676;23.238;2023-09-30T11:56:36;25.55;;;13.82;;
66751;SDS011;53663;42.676;23.238;2023-09-30T11:59:02;14.80;;;6.10;;
66751;SDS011;53663;42.676;23.238;2023-09-30T12:01:29;8.77;;;3.80;;
66751;SDS011;53663;42.676;23.238;2023-09-30T12:03:57;10.60;;;4.30;;
66751;SDS011;53663;42.676;23.238;2023-09-30T12:06:24;9.52;;;3.85;;
66751;SDS011;53663;42.676;23.238;2023-09-30T12:08:50;8.48;;;4.25;;
66751;SDS011;53663;42.676;23.238;2023-09-30T12:11:19;12.20;;;3.90;;
66751;SDS011;53663;42.676;23.238;2023-09-30T12:13:45;17.67;;;3.97;;
66751;SDS011;53663;42.676;23.238;2023-09-30T12:16:14;13.20;;;3.78;;
66751;SDS011;53663;42.676;23.238;2023-09-30T12:18:39;12.15;;;4.03;;
66751;SDS011;53663;42.676;23.238;2023-09-30T12:21:07;9.40;;;3.85;;
66751;SDS011;53663;42.676;23.238;2023-09-30T12:23:36;10.15;;;3.60;;
66751;SDS011;53663;42.676;23.238;2023-09-30T12:26:02;9.20;;;3.65;;
66751;SDS011;53663;42.676;23.238;2023-09-30T12:28:30;9.80;;;4.03;;
66751;SDS011;53663;42.676;23.238;2023-09-30T12:30:59;9.57;;;3.60;;
66751;SDS011;53663;42.676;23.238;2023-09-30T12:35:55;7.70;;;3.75;;
66751;SDS011;53663;42.676;23.238;2023-09-30T12:38:22;8.02;;;3.78;;
66751;SDS011;53663;42.676;23.238;2023-09-30T12:40:47;12.27;;;3.80;;
66751;SDS011;53663;42.676;23.238;2023-09-30T12:43:13;9.70;;;4.05;;
66751;SDS011;53663;42.676;23.238;2023-09-30T12:45:39;13.93;;;4.00;;
66751;SDS011;53663;42.676;23.238;2023-09-30T12:48:04;14.68;;;4.55;;
66751;SDS011;53663;42.676;23.238;2023-09-30T12:50:30;14.23;;;3.70;;
66751;SDS011;53663;42.676;23.238;2023-09-30T12:52:56;15.68;;;4.00;;
66751;SDS011;53663;42.676;23.238;2023-09-30T12:55:21;8.20;;;3.55;;
66751;SDS011;53663;42.676;23.238;2023-09-30T12:57:47;16.95;;;4.45;;
66751;SDS011;53663;42.676;23.238;2023-09-30T13:00:12;12.65;;;3.85;;
66751;SDS011;53663;42.676;23.238;2023-09-30T13:02:40;13.55;;;4.05;;
66751;SDS011;53663;42.676;23.238;2023-09-30T13:05:06;7.47;;;3.67;;
66751;SDS011;53663;42.676;23.238;2023-09-30T13:07:32;9.25;;;3.60;;
66751;SDS011;53663;42.676;23.238;2023-09-30T13:09:58;11.93;;;3.78;;
66751;SDS011;53663;42.676;23.238;2023-09-30T13:12:26;9.10;;;3.60;;
66751;SDS011;53663;42.676;23.238;2023-09-30T13:14:52;11.82;;;3.72;;
66751;SDS011;53663;42.676;23.238;2023-09-30T13:17:21;13.93;;;3.95;;
66751;SDS011;53663;42.676;23.238;2023-09-30T13:19:49;9.90;;;3.95;;
66751;SDS011;53663;42.676;23.238;2023-09-30T13:22:15;8.30;;;3.75;;
66751;SDS011;53663;42.676;23.238;2023-09-30T13:24:41;9.18;;;4.00;;
66751;SDS011;53663;42.676;23.238;2023-09-30T13:27:07;13.05;;;3.85;;
66751;SDS011;53663;42.676;23.238;2023-09-30T13:29:33;12.15;;;4.57;;
66751;SDS011;53663;42.676;23.238;2023-09-30T13:31:59;8.20;;;3.80;;
66751;SDS011;53663;42.676;23.238;2023-09-30T13:34:24;13.55;;;3.97;;
66751;SDS011;53663;42.676;23.238;2023-09-30T13:36:50;9.50;;;4.53;;
66751;SDS011;53663;42.676;23.238;2023-09-30T13:39:15;10.00;;;4.35;;
66751;SDS011;53663;42.676;23.238;2023-09-30T13:41:45;10.98;;;4.00;;
66751;SDS011;53663;42.676;23.238;2023-09-30T13:44:12;15.00;;;4.10;;
66751;SDS011;53663;42.676;23.238;2023-09-30T13:46:38;12.10;;;4.05;;
66751;SDS011;53663;42.676;23.238;2023-09-30T13:49:04;9.50;;;4.28;;
66751;SDS011;53663;42.676;23.238;2023-09-30T13:51:29;13.77;;;4.60;;
66751;SDS011;53663;42.676;23.238;2023-09-30T13:53:55;8.32;;;4.20;;
66751;SDS011;53663;42.676;23.238;2023-09-30T13:56:20;10.55;;;4.55;;
66751;SDS011;53663;42.676;23.238;2023-09-30T13:58:46;7.00;;;3.90;;
66751;SDS011;53663;42.676;23.238;2023-09-30T14:01:13;7.63;;;4.05;;
66751;SDS011;53663;42.676;23.238;2023-09-30T14:03:39;13.48;;;3.90;;
66751;SDS011;53663;42.676;23.238;2023-09-30T14:06:09;16.08;;;4.25;;
66751;SDS011;53663;42.676;23.238;2023-09-30T14:08:37;15.73;;;3.80;;
66751;SDS011;53663;42.676;23.238;2023-09-30T14:11:02;16.77;;;3.95;;
66751;SDS011;53663;42.676;23.238;2023-09-30T14:13:28;20.10;;;4.00;;
66751;SDS011;53663;42.676;23.238;2023-09-30T14:15:53;14.50;;;3.72;;
66751;SDS011;53663;42.676;23.238;2023-09-30T14:18:19;7.60;;;4.28;;
66751;SDS011;53663;42.676;23.238;2023-09-30T14:20:45;11.75;;;4.50;;
66751;SDS011;53663;42.676;23.238;2023-09-30T14:23:11;8.18;;;3.92;;
66751;SDS011;53663;42.676;23.238;2023-09-30T14:25:36;9.60;;;3.60;;
66751;SDS011;53663;42.676;23.238;2023-09-30T14:28:02;8.23;;;4.35;;
66751;SDS011;53663;42.676;23.238;2023-09-30T14:30:28;14.93;;;3.90;;
66751;SDS011;53663;42.676;23.238;2023-09-30T14:32:54;12.70;;;3.80;;
66751;SDS011;53663;42.676;23.238;2023-09-30T14:35:20;14.95;;;4.13;;
66751;SDS011;53663;42.676;23.238;2023-09-30T14:37:45;15.60;;;3.92;;
66751;SDS011;53663;42.676;23.238;2023-09-30T14:40:11;14.27;;;3.83;;
66751;SDS011;53663;42.676;23.238;2023-09-30T14:42:37;16.58;;;3.97;;
66751;SDS011;53663;42.676;23.238;2023-09-30T14:45:03;10.57;;;4.50;;
66751;SDS011;53663;42.676;23.238;2023-09-30T14:47:29;15.75;;;4.40;;
66751;SDS011;53663;42.676;23.238;2023-09-30T14:49:54;8.35;;;3.85;;
66751;SDS011;53663;42.676;23.238;2023-09-30T14:52:20;13.98;;;4.50;;